Latest Coastal Weather Observations for Albany Airport

IDW60701

Issued at 9:23 am WST Tuesday 30 May 2017 (issued every 10 minutes, with the page automatically refreshed every 10 minutes)

About coastal observations | Map of coastal stations | Coastal observations for WA | Marine services | Other Formats
Station Details ID: 009999 Name: ALBANY AIRPORT Lat: -34.94 Lon: 117.82 Height: 68.4 m
Data from the previous 72 hours. | See also: Recent months at Albany Airport
Date/Time
WST
Temp
°C
Wind Pressure Rain since
9am
mm
Weather Cloud Vis
km
Sea
Height
m
Swell
Dir  Spd
kts
Gust
kts
hPa Trend Height
m
Period
s
Dir
30/09:00am 11.8 N 8 11 1024.4 - 0.0 - - 10 - - - -
30/08:30am 9.5 N 5 6 1024.4 - 0.0 - - 10 - - - -
30/08:00am 7.6 NNE 5 6 1024.2 - 0.0 - - 10 - - - -
30/07:30am 6.5 NNE 5 6 1024.1 - 0.0 - - 10 - - - -
30/07:00am 5.9 NE 6 7 1024.2 - 0.0 - - 10 - - - -
30/06:30am 4.1 NNE 6 7 1024.3 - 0.0 - - 10 - - - -
30/06:00am 5.5 NE 5 6 1024.3 - 0.0 - - 10 - - - -
30/05:30am 5.4 NE 5 5 1024.1 - 0.0 - - 10 - - - -
30/05:00am 5.7 NE 5 7 1024.1 - 0.0 - - 10 - - - -
30/04:30am 5.8 NE 5 6 1024.1 - 0.0 - - 10 - - - -
30/04:00am 5.0 NE 5 6 1024.2 - 0.0 - - 10 - - - -
30/03:30am 5.7 NE 6 8 1024.4 - 0.0 - - 10 - - - -
30/03:00am 6.5 ENE 4 5 1024.6 - 0.0 - - 10 - - - -
30/02:30am 6.6 NE 5 6 1024.7 - 0.0 - - 10 - - - -
30/02:00am 7.1 NE 6 7 1024.7 - 0.0 - - 10 - - - -
30/01:30am 7.7 ENE 7 7 1024.6 - 0.0 - - 10 - - - -
30/01:00am 7.4 NE 5 5 1024.6 - 0.0 - - 10 - - - -
30/12:30am 7.7 NNE 6 7 1025.0 - 0.0 - - 10 - - - -
30/12:00am 9.5 NE 9 10 1025.4 - 0.0 - - 10 - - - -
 
Date/Time
WST
Temp
°C
Wind Pressure Rain since
9am
mm
Weather Cloud Vis
km
Sea
Height
m
Swell
Dir  Spd
kts
Gust
kts
hPa Trend Height
m
Period
s
Dir
29/11:30pm 8.6 NNE 8 9 1025.5 - 0.0 - - 10 - - - -
29/11:00pm 9.0 NNE 7 9 1025.4 - 0.0 - - 10 - - - -
29/10:30pm 9.1 NE 7 8 1025.5 - 0.0 - - 10 - - - -
29/10:06pm 8.3 NE 6 7 1026.0 - 0.0 - - 10 - - - -
29/10:00pm 8.4 NE 5 7 1026.1 - 0.0 - - 10 - - - -
29/09:30pm 8.8 NNE 4 5 1026.3 - 0.0 - - 1 - - - -
29/09:00pm 8.9 NNE 5 6 1026.4 - 0.0 - - 4 - - - -
29/08:53pm 8.6 NNE 5 5 1026.3 - 0.0 - - 5 - - - -
29/08:30pm 9.3 NNE 5 5 1026.1 - 0.0 - - 10 - - - -
29/08:00pm 9.7 NNE 5 5 1026.1 - 0.0 - - 10 - - - -
29/07:30pm 10.7 ENE 7 7 1025.7 - 0.0 - - 10 - - - -
29/07:00pm 11.3 E 5 7 1025.5 - 0.0 - - 10 - - - -
29/06:30pm 11.4 E 6 6 1025.4 - 0.0 - - 10 - - - -
29/06:00pm 11.5 E 4 5 1025.6 - 0.0 - - 10 - - - -
29/05:30pm 11.8 E 4 5 1025.3 - 0.0 - - 10 - - - -
29/05:00pm 14.6 ENE 1 3 1025.4 - 0.0 - - 10 - - - -
29/04:30pm 16.3 E 3 4 1025.3 - 0.0 - - 10 - - - -
29/04:00pm 16.9 NE 3 5 1025.2 - 0.0 - - 10 - - - -
29/03:30pm 15.8 N 3 4 1025.2 - 0.0 - Partly cloudy 10 - - - -
29/03:00pm 16.6 WNW 1 4 1025.3 - 0.0 - Cloudy 10 - - - -
29/02:30pm 16.3 NW 1 3 1025.0 - 0.0 - Cloudy 10 - - - -
29/02:00pm 16.5 NNW 2 4 1025.0 - 0.0 - Cloudy 10 - - - -
29/01:30pm 16.6 NW 4 6 1025.0 - 0.0 - Cloudy 10 - - - -
29/01:00pm 16.8 NNE 4 7 1025.2 - 0.0 - Cloudy 10 - - - -
29/12:30pm 17.0 NNW 6 9 1025.4 - 0.0 - Partly cloudy 10 - - - -
29/12:00pm 16.3 NW 6 9 1025.9 - 0.0 - Partly cloudy 10 - - - -
29/11:30am 15.8 NNW 7 8 1026.4 - 0.0 - Partly cloudy 10 - - - -
29/11:00am 16.3 NNW 7 8 1026.7 - 0.0 - Partly cloudy 10 - - - -
29/10:30am 14.3 NW 6 7 1027.1 - 0.0 - Partly cloudy 10 - - - -
29/10:00am 14.6 NNW 4 6 1027.1 - 0.0 - Cloudy 10 - - - -
29/09:30am 13.6 NW 7 9 1026.9 - 0.0 - Partly cloudy 10 - - - -
29/09:00am 12.8 NNW 9 12 1026.9 - 0.2 - Mostly cloudy 10 - - - -
29/08:30am 12.2 NW 6 8 1026.7 - 0.2 - Cloudy 10 - - - -
29/08:00am 11.6 WNW 7 8 1026.1 - 0.2 - Partly cloudy 10 - - - -
29/07:30am 10.2 NW 5 8 1025.9 - 0.2 - Partly cloudy 10 - - - -
29/07:00am 11.0 W 5 7 1025.9 - 0.2 - Partly cloudy 10 - - - -
29/06:30am 11.1 WNW 5 6 1025.4 - 0.2 - Cloudy 10 - - - -
29/06:00am 11.2 NNW 6 7 1025.0 - 0.2 - Mostly cloudy 10 - - - -
29/05:30am 10.6 NW 5 6 1025.0 - 0.2 - Cloudy 10 - - - -
29/05:00am 10.8 WNW 6 7 1025.0 - 0.2 - Partly cloudy 10 - - - -
29/04:30am 11.3 NW 6 8 1024.8 - 0.2 - Cloudy 10 - - - -
29/04:00am 11.9 NW 7 8 1024.8 - 0.0 - Cloudy 10 - - - -
29/03:30am 11.5 NNW 8 11 1024.8 - 0.0 - Partly cloudy 10 - - - -
29/03:00am 11.8 NNW 7 9 1024.9 - 0.0 - Mostly cloudy 10 - - - -
29/02:30am 11.9 NNW 6 8 1025.2 - 0.0 - Cloudy 10 - - - -
29/02:00am 12.0 NNW 7 8 1025.3 - 0.0 - Cloudy 10 - - - -
29/01:30am 11.9 NW 5 7 1025.3 - 0.0 - Cloudy 10 - - - -
29/01:00am 11.8 NW 6 8 1025.3 - 0.0 - Cloudy 10 - - - -
29/12:30am 12.2 NW 8 10 1025.4 - 0.0 - Cloudy 10 - - - -
29/12:00am 12.3 NNW 7 9 1025.6 - 0.0 - Cloudy 10 - - - -
 
Date/Time
WST
Temp
°C
Wind Pressure Rain since
9am
mm
Weather Cloud Vis
km
Sea
Height
m
Swell
Dir  Spd
kts
Gust
kts
hPa Trend Height
m
Period
s
Dir
28/11:30pm 12.1 WNW 7 8 1025.9 - 0.0 - Cloudy 10 - - - -
28/11:00pm 12.4 NW 8 9 1025.8 - 0.0 - Cloudy 10 - - - -
28/10:30pm 12.4 NW 9 10 1025.9 - 0.0 - Cloudy 10 - - - -
28/10:00pm 12.5 NW 5 6 1026.2 - 0.0 - Cloudy 10 - - - -
28/09:30pm 12.4 NW 6 7 1026.4 - 0.0 - Partly cloudy 10 - - - -
28/09:00pm 12.3 NW 6 7 1026.4 - 0.0 - Cloudy 10 - - - -
28/08:30pm 12.5 NNW 5 7 1026.1 - 0.0 - Cloudy 10 - - - -
28/08:00pm 12.3 NW 5 6 1026.1 - 0.0 - Cloudy 10 - - - -
28/07:30pm 12.5 WNW 5 6 1026.0 - 0.0 - Partly cloudy 10 - - - -
28/07:00pm 12.6 W 3 5 1025.9 - 0.0 - Cloudy 10 - - - -
28/06:30pm 12.4 WNW 1 3 1025.8 - 0.0 - Cloudy 10 - - - -
28/06:00pm 12.5 W 3 4 1025.6 - 0.0 - Cloudy 10 - - - -
28/05:30pm 12.4 NW 4 4 1025.5 - 0.0 - Partly cloudy 10 - - - -
28/05:00pm 12.8 NW 4 5 1025.3 - 0.0 - Cloudy 10 - - - -
28/04:30pm 14.3 WNW 3 4 1025.3 - 0.0 - Cloudy 10 - - - -
28/04:00pm 14.7 W 5 8 1025.3 - 0.0 - Cloudy 10 - - - -
28/03:30pm 14.8 W 5 6 1025.3 - 0.0 - Cloudy 10 - - - -
28/03:00pm 14.8 W 4 5 1025.5 - 0.0 - Cloudy 10 - - - -
28/02:30pm 14.8 W 4 6 1025.4 - 0.0 - Partly cloudy 10 - - - -
28/02:00pm 14.8 W 8 10 1025.6 - 0.0 - Partly cloudy 10 - - - -
28/01:30pm 15.0 WNW 8 10 1025.7 - 0.0 - Partly cloudy 10 - - - -
28/01:00pm 15.2 WNW 8 11 1026.0 - 0.0 - Partly cloudy 10 - - - -
28/12:30pm 14.9 NW 9 11 1026.2 - 0.0 - Cloudy 10 - - - -
28/12:00pm 14.7 NNW 9 11 1026.6 - 0.0 - Cloudy 10 - - - -
28/11:30am 14.7 NW 9 12 1027.0 - 0.0 - Cloudy 10 - - - -
28/11:00am 14.3 NW 8 10 1027.3 - 0.0 - Cloudy 10 - - - -
28/10:30am 13.1 NW 9 11 1027.7 - 0.0 - Partly cloudy 10 - - - -
28/10:00am 12.8 WNW 7 9 1028.0 - 0.0 - Partly cloudy 10 - - - -
28/09:30am 12.3 NW 7 9 1028.0 - 0.0 - Cloudy 10 - - - -
28/09:00am 11.6 W 7 9 1028.0 - 0.4 - Cloudy 10 - - - -
28/08:30am 11.2 WSW 4 7 1027.5 - 0.4 - Cloudy 10 - - - -
28/08:00am 10.8 WNW 4 7 1027.2 - 0.4 - Cloudy 10 - - - -
28/07:30am 10.1 NW 4 6 1026.9 - 0.4 - Cloudy 10 - - - -
28/07:00am 9.5 CALM 0 0 1026.5 - 0.4 - Cloudy 10 - - - -
28/06:30am 9.1 CALM 0 0 1026.2 - 0.4 - Cloudy 10 - - - -
28/06:00am 9.2 WNW 5 6 1026.2 - 0.4 - Mostly cloudy 10 - - - -
28/05:30am 10.1 NW 7 8 1026.0 - 0.4 - Cloudy 10 - - - -
28/05:00am 9.7 CALM 0 0 1026.1 - 0.4 - Cloudy 10 - - - -
28/04:30am 9.5 NW 6 7 1026.1 - 0.4 - Cloudy 10 - - - -
28/04:00am 9.0 N 6 7 1026.1 - 0.4 - Partly cloudy 10 - - - -
28/03:30am 9.7 N 3 5 1026.4 - 0.4 - Partly cloudy 10 - - - -
28/03:15am 10.7 WNW 3 4 1026.7 - 0.4 - Partly cloudy 10 - - - -
28/03:00am 10.5 SSW 3 4 1027.0 - 0.4 - Cloudy 3 - - - -
28/02:40am 10.3 S 4 7 1026.9 - 0.2 - Partly cloudy 6 - - - -
28/02:30am 10.0 SSW 6 7 1026.9 - 0.2 - Cloudy 10 - - - -
28/02:00am 9.1 WNW 4 6 1026.5 - 0.2 - Cloudy 10 - - - -
28/01:30am 8.8 NW 4 5 1026.4 - 0.2 - Partly cloudy 10 - - - -
28/01:00am 9.8 WNW 5 6 1026.7 - 0.2 - Cloudy 10 - - - -
28/12:30am 10.1 W 3 3 1026.9 - 0.2 - Cloudy 10 - - - -
28/12:00am 10.6 WNW 4 6 1027.1 - 0.2 - Cloudy 10 - - - -
 
Date/Time
WST
Temp
°C
Wind Pressure Rain since
9am
mm
Weather Cloud Vis
km
Sea
Height
m
Swell
Dir  Spd
kts
Gust
kts
hPa Trend Height
m
Period
s
Dir
27/11:30pm 10.5 WNW 4 6 1027.1 - 0.2 - Cloudy 10 - - - -
27/11:00pm 10.1 NNW 4 5 1027.2 - 0.2 - Cloudy 10 - - - -
27/10:30pm 9.7 CALM 0 3 1027.3 - 0.2 - Partly cloudy 10 - - - -
27/10:00pm 10.2 NW 6 7 1027.3 - 0.2 - Cloudy 10 - - - -
27/09:30pm 10.3 NW 4 5 1027.3 - 0.2 - Partly cloudy 10 - - - -
27/09:00pm 10.2 NW 4 5 1027.5 - 0.2 - Cloudy 10 - - - -
27/08:30pm 9.5 NW 5 6 1027.2 - 0.2 - Partly cloudy 10 - - - -
27/08:00pm 9.3 NW 3 4 1027.2 - 0.2 - - 10 - - - -
27/07:30pm 10.0 NNW 3 5 1027.0 - 0.2 - Partly cloudy 10 - - - -
27/07:00pm 9.4 NNW 4 5 1026.8 - 0.2 - Partly cloudy 10 - - - -
27/06:30pm 10.2 CALM 0 0 1026.5 - 0.2 - Partly cloudy 10 - - - -
27/06:00pm 11.3 CALM 0 0 1026.4 - 0.2 - Mostly clear 10 - - - -
27/05:30pm 12.4 SE 3 4 1026.1 - 0.2 - Cloudy 10 - - - -
27/05:00pm 13.1 SSW 1 3 1026.1 - 0.2 - Partly cloudy 10 - - - -
27/04:30pm 13.4 S 5 6 1026.1 - 0.2 - Partly cloudy 10 - - - -
27/04:00pm 14.9 S 7 9 1025.8 - 0.2 - Cloudy 10 - - - -
27/03:30pm 13.8 S 7 10 1025.7 - 0.2 - Partly cloudy 10 - - - -
27/03:00pm 14.9 S 5 7 1025.4 - 0.2 - Cloudy 10 - - - -
27/02:30pm 14.8 S 7 11 1025.1 - 0.0 - Partly cloudy 10 - - - -
27/02:00pm 15.1 SSE 6 9 1025.1 - 0.0 - Partly cloudy 10 - - - -
27/01:30pm 14.6 SSE 7 12 1025.1 - 0.0 - Partly cloudy 10 - - - -
27/01:00pm 14.9 SSE 8 11 1025.1 - 0.0 - Partly cloudy 10 - - - -
27/12:30pm 15.9 SSW 6 10 1025.1 - 0.0 - Partly cloudy 10 - - - -
27/12:00pm 14.8 SSE 7 11 1025.6 - 0.0 - Mostly cloudy 10 - - - -
27/11:30am 15.6 S 8 13 1025.7 - 0.0 - Partly cloudy 10 - - - -
27/11:00am 14.0 SW 2 3 1025.8 - 0.0 - Partly cloudy 10 - - - -
27/10:30am 13.8 WNW 7 9 1025.7 - 0.0 - Partly cloudy 10 - - - -
27/10:00am 13.5 WNW 7 8 1025.7 - 0.0 - Partly cloudy 10 - - - -
27/09:30am 13.1 WNW 8 11 1025.6 - 0.0 - Partly cloudy 10 - - - -

Other Formats:

Comma delimited format used in spreadsheet applications
http://www.bom.gov.au/fwo/IDW60701/IDW60701.94802.axf

JavaScript Object Notation format (JSON) in row-major order
http://www.bom.gov.au/fwo/IDW60701/IDW60701.94802.json